createdAt,value
2017-04-19T00:00:12.784Z,0
2017-04-19T00:00:54.695Z,0
2017-04-19T00:01:37.405Z,0
2017-04-19T00:02:17.621Z,0
2017-04-19T00:02:58.113Z,0
2017-04-19T00:03:38.591Z,0
2017-04-19T00:04:19.068Z,0
2017-04-19T00:04:59.551Z,0
2017-04-19T00:05:40.025Z,0
2017-04-19T00:06:20.558Z,0
2017-04-19T00:07:01.021Z,0
2017-04-19T00:07:41.554Z,0
2017-04-19T00:08:22.021Z,0
2017-04-19T00:09:02.489Z,0
2017-04-19T00:09:42.972Z,0
2017-04-19T00:10:23.499Z,0
2017-04-19T00:11:04.042Z,0
2017-04-19T00:11:44.525Z,0
2017-04-19T00:12:25.006Z,0
2017-04-19T00:13:05.529Z,0
2017-04-19T00:13:46.012Z,0
2017-04-19T00:14:26.719Z,0
2017-04-19T00:15:07.225Z,0
2017-04-19T00:15:47.707Z,0
2017-04-19T00:16:28.166Z,0
2017-04-19T00:17:08.684Z,0
2017-04-19T00:17:49.159Z,0
2017-04-19T00:18:29.633Z,0
2017-04-19T00:19:10.165Z,0
2017-04-19T00:19:50.620Z,0
2017-04-19T00:20:31.259Z,0
2017-04-19T00:21:11.769Z,0
2017-04-19T00:21:52.299Z,0
2017-04-19T00:22:32.746Z,0
2017-04-19T00:23:13.201Z,0
2017-04-19T00:23:53.768Z,0
2017-04-19T00:24:34.220Z,0
2017-04-19T00:25:14.786Z,0
2017-04-19T00:25:55.199Z,0
2017-04-19T00:26:35.680Z,0
2017-04-19T00:27:16.183Z,0
2017-04-19T00:27:56.682Z,0
2017-04-19T00:28:37.205Z,0
2017-04-19T00:29:17.646Z,0
2017-04-19T00:29:58.177Z,0
2017-04-19T00:30:38.641Z,0
2017-04-19T00:31:19.123Z,0
2017-04-19T00:31:59.673Z,0
2017-04-19T00:32:40.139Z,0
2017-04-19T00:33:20.637Z,0
2017-04-19T00:34:01.135Z,0
2017-04-19T00:34:41.568Z,0
2017-04-19T00:35:22.095Z,0
2017-04-19T00:36:02.622Z,0
2017-04-19T00:36:43.053Z,0
2017-04-19T00:37:23.570Z,0
2017-04-19T00:38:04.044Z,0
2017-04-19T00:38:44.536Z,0
2017-04-19T00:39:25.057Z,0
2017-04-19T00:40:05.624Z,0
2017-04-19T00:40:46.017Z,0
2017-04-19T00:41:26.536Z,0
2017-04-19T00:42:07.049Z,0
2017-04-19T00:42:47.510Z,0
2017-04-19T00:43:28.058Z,0
2017-04-19T00:44:08.512Z,0
2017-04-19T00:44:48.976Z,0
2017-04-19T00:45:29.521Z,0
2017-04-19T00:46:09.987Z,0
2017-04-19T00:46:50.444Z,0
2017-04-19T00:47:30.929Z,0
2017-04-19T00:48:11.425Z,0
2017-04-19T00:48:51.925Z,0
2017-04-19T00:49:32.378Z,0
2017-04-19T00:50:12.914Z,0
2017-04-19T00:50:53.417Z,0
2017-04-19T00:51:33.916Z,0
2017-04-19T00:52:14.359Z,0
2017-04-19T00:52:54.860Z,0
2017-04-19T00:53:35.345Z,0
2017-04-19T00:54:15.855Z,0
2017-04-19T00:54:56.361Z,0
2017-04-19T00:55:36.914Z,0
2017-04-19T00:56:17.397Z,0
2017-04-19T00:56:57.867Z,0
2017-04-19T00:57:38.370Z,0
2017-04-19T00:58:18.864Z,0
2017-04-19T00:58:59.322Z,0
2017-04-19T00:59:39.795Z,0
2017-04-19T01:00:20.291Z,0
2017-04-19T01:01:00.747Z,0
2017-04-19T01:01:41.254Z,0
2017-04-19T01:02:21.741Z,0
2017-04-19T01:03:02.245Z,0
2017-04-19T01:03:42.692Z,0
2017-04-19T01:04:23.206Z,0
2017-04-19T01:05:03.667Z,0
2017-04-19T01:05:44.181Z,0
2017-04-19T01:06:24.645Z,0
2017-04-19T01:07:05.147Z,0
2017-04-19T01:07:45.652Z,0
2017-04-19T01:08:26.142Z,0
2017-04-19T01:09:06.615Z,0
2017-04-19T01:09:47.569Z,0
2017-04-19T01:10:28.064Z,0
2017-04-19T01:11:08.520Z,0
2017-04-19T01:11:49.012Z,0
2017-04-19T01:12:29.480Z,0
2017-04-19T01:13:09.941Z,0
2017-04-19T01:13:50.451Z,0
2017-04-19T01:14:30.933Z,0
2017-04-19T01:15:11.450Z,0
2017-04-19T01:15:51.921Z,0
2017-04-19T01:16:32.393Z,0
2017-04-19T01:17:12.922Z,0
2017-04-19T01:17:53.412Z,0
2017-04-19T01:18:33.887Z,0
2017-04-19T01:19:14.386Z,0
2017-04-19T01:19:54.871Z,0
2017-04-19T01:20:35.356Z,0
2017-04-19T01:21:15.854Z,0
2017-04-19T01:21:56.349Z,0
2017-04-19T01:22:36.875Z,0
2017-04-19T01:23:17.334Z,0
2017-04-19T01:23:57.804Z,0
2017-04-19T01:24:38.265Z,0
2017-04-19T01:25:18.750Z,0
2017-04-19T01:25:59.236Z,0
2017-04-19T01:26:39.726Z,0
2017-04-19T01:27:20.227Z,0
2017-04-19T01:28:00.721Z,0
2017-04-19T01:28:41.234Z,0
2017-04-19T01:29:21.708Z,0
2017-04-19T01:30:02.200Z,0
2017-04-19T01:30:42.707Z,0
2017-04-19T01:31:23.147Z,0
2017-04-19T01:32:03.636Z,0
2017-04-19T01:32:44.105Z,0
2017-04-19T01:33:24.585Z,0
2017-04-19T01:34:05.081Z,0
2017-04-19T01:34:45.581Z,0
2017-04-19T01:35:26.100Z,0
2017-04-19T01:36:06.535Z,0
2017-04-19T01:36:47.072Z,0
2017-04-19T01:37:27.527Z,0
2017-04-19T01:38:08.062Z,0
2017-04-19T01:38:48.539Z,0
2017-04-19T01:39:29.024Z,0
2017-04-19T01:40:09.550Z,0
2017-04-19T01:40:49.986Z,0
2017-04-19T01:41:30.476Z,0
2017-04-19T01:42:10.999Z,0
2017-04-19T01:42:51.434Z,0
2017-04-19T01:43:31.911Z,0
2017-04-19T01:44:12.435Z,0
2017-04-19T01:44:52.907Z,0
2017-04-19T01:45:33.390Z,0
2017-04-19T01:46:13.912Z,0
2017-04-19T01:46:54.422Z,0
2017-04-19T01:47:34.889Z,0
2017-04-19T01:48:15.375Z,0
2017-04-19T01:48:55.816Z,0
2017-04-19T01:49:36.304Z,0
2017-04-19T01:50:16.810Z,0
2017-04-19T01:50:57.322Z,0
2017-04-19T01:51:37.772Z,0
2017-04-19T01:52:18.548Z,0
2017-04-19T01:52:58.957Z,0
2017-04-19T01:53:39.464Z,0
2017-04-19T01:54:19.920Z,0
2017-04-19T01:55:00.414Z,0
2017-04-19T01:55:40.874Z,0
2017-04-19T01:56:21.371Z,0
2017-04-19T01:57:01.876Z,0
2017-04-19T01:57:42.381Z,0
2017-04-19T01:58:22.813Z,0
2017-04-19T01:59:03.319Z,0
2017-04-19T01:59:43.815Z,0
2017-04-19T02:00:24.287Z,0
2017-04-19T02:01:04.785Z,0
2017-04-19T02:01:45.282Z,0
2017-04-19T02:02:25.829Z,0
2017-04-19T02:03:06.303Z,0
2017-04-19T02:03:46.759Z,0
2017-04-19T02:04:27.227Z,0
2017-04-19T02:05:07.717Z,0
2017-04-19T02:05:48.244Z,0
2017-04-19T02:06:28.721Z,0
2017-04-19T02:07:09.204Z,0
2017-04-19T02:07:49.688Z,0
2017-04-19T02:08:30.198Z,0
2017-04-19T02:09:10.697Z,0
2017-04-19T02:09:51.135Z,0
2017-04-19T02:10:31.631Z,0
2017-04-19T02:11:12.129Z,0
2017-04-19T02:11:52.622Z,0
2017-04-19T02:12:33.137Z,0
2017-04-19T02:13:13.605Z,0
2017-04-19T02:13:54.136Z,0
2017-04-19T02:14:34.607Z,0
2017-04-19T02:15:15.135Z,0
2017-04-19T02:15:55.613Z,0
2017-04-19T02:16:36.089Z,0
2017-04-19T02:17:16.653Z,0
2017-04-19T02:17:57.139Z,0
2017-04-19T02:18:37.603Z,0
2017-04-19T02:19:18.046Z,0
2017-04-19T02:19:58.611Z,0
2017-04-19T02:20:39.074Z,0
2017-04-19T02:21:19.541Z,0
2017-04-19T02:22:00.017Z,0
2017-04-19T02:22:40.558Z,0
2017-04-19T02:23:21.031Z,0
2017-04-19T02:24:01.512Z,0
2017-04-19T02:24:41.996Z,0
2017-04-19T02:25:22.456Z,0
2017-04-19T02:26:02.985Z,0
2017-04-19T02:26:43.530Z,0
2017-04-19T02:27:23.983Z,0
2017-04-19T02:28:04.468Z,0
2017-04-19T02:28:44.986Z,0
2017-04-19T02:29:25.436Z,0
2017-04-19T02:30:05.953Z,0
2017-04-19T02:30:46.483Z,0
2017-04-19T02:31:27.050Z,0
2017-04-19T02:32:07.558Z,0
2017-04-19T02:32:48.014Z,0
2017-04-19T02:33:28.530Z,0
2017-04-19T02:34:08.978Z,0
2017-04-19T02:34:49.466Z,0
2017-04-19T02:35:29.948Z,0
2017-04-19T02:36:10.447Z,0
2017-04-19T02:36:50.944Z,0
2017-04-19T02:37:31.423Z,0
2017-04-19T02:38:11.921Z,0
2017-04-19T02:38:52.464Z,0
2017-04-19T02:39:32.927Z,0
2017-04-19T02:40:13.468Z,0
2017-04-19T02:40:53.983Z,0
2017-04-19T02:41:34.438Z,0
2017-04-19T02:42:14.906Z,0
2017-04-19T02:42:55.415Z,0
2017-04-19T02:43:35.898Z,0
2017-04-19T02:44:16.383Z,0
2017-04-19T02:44:56.898Z,0
2017-04-19T02:45:37.384Z,0
2017-04-19T02:46:17.864Z,0
2017-04-19T02:46:58.330Z,0
2017-04-19T02:47:38.819Z,0
2017-04-19T02:48:19.340Z,0
2017-04-19T02:48:59.879Z,0
2017-04-19T02:49:40.320Z,0
2017-04-19T02:50:20.815Z,0
2017-04-19T02:51:01.321Z,0
2017-04-19T02:51:41.780Z,0
2017-04-19T02:52:22.279Z,0
2017-04-19T02:53:02.730Z,0
2017-04-19T02:53:43.263Z,0
2017-04-19T02:54:23.720Z,0
2017-04-19T02:55:04.231Z,0
2017-04-19T02:55:44.766Z,0
2017-04-19T02:56:25.229Z,0
2017-04-19T02:57:05.769Z,0
2017-04-19T02:57:46.210Z,0
2017-04-19T02:58:26.726Z,0
2017-04-19T02:59:07.209Z,0
2017-04-19T02:59:47.677Z,0
2017-04-19T03:00:28.175Z,0
2017-04-19T03:01:08.658Z,0
2017-04-19T03:01:49.148Z,0
2017-04-19T03:02:29.636Z,0
2017-04-19T03:03:10.145Z,0
2017-04-19T03:03:50.582Z,0
2017-04-19T03:04:31.074Z,0
2017-04-19T03:05:11.600Z,0
2017-04-19T03:05:52.055Z,0
2017-04-19T03:06:32.533Z,0
2017-04-19T03:07:13.000Z,0
2017-04-19T03:07:53.534Z,0
2017-04-19T03:08:34.022Z,0
2017-04-19T03:09:14.500Z,0
2017-04-19T03:09:55.030Z,0
2017-04-19T03:10:35.524Z,0
2017-04-19T03:11:15.983Z,0
2017-04-19T03:11:56.486Z,0
2017-04-19T03:12:36.952Z,0
2017-04-19T03:13:17.451Z,0
2017-04-19T03:13:57.950Z,0
2017-04-19T03:14:38.508Z,0
2017-04-19T03:15:19.036Z,0
2017-04-19T03:15:59.543Z,0
2017-04-19T03:16:40.031Z,0
2017-04-19T03:17:20.496Z,0
2017-04-19T03:18:00.959Z,0
2017-04-19T03:18:41.458Z,0
2017-04-19T03:19:21.956Z,0
2017-04-19T03:20:02.836Z,0
2017-04-19T03:20:43.369Z,0
2017-04-19T03:21:23.805Z,0
2017-04-19T03:22:04.315Z,0
2017-04-19T03:22:44.804Z,0
2017-04-19T03:23:25.256Z,0
2017-04-19T03:24:05.759Z,0
2017-04-19T03:24:46.256Z,0
2017-04-19T03:25:26.741Z,0
2017-04-19T03:26:07.275Z,0
2017-04-19T03:26:47.727Z,0
2017-04-19T03:27:28.215Z,0
2017-04-19T03:28:08.695Z,0
2017-04-19T03:28:49.239Z,0
2017-04-19T03:29:29.710Z,0
2017-04-19T03:30:10.664Z,0
2017-04-19T03:30:53.033Z,0
2017-04-19T03:31:35.198Z,0
2017-04-19T03:34:13.904Z,0
2017-04-19T03:34:54.156Z,0
2017-04-19T03:35:34.686Z,0
2017-04-19T03:36:15.146Z,0
2017-04-19T03:36:55.720Z,0
2017-04-19T03:37:36.212Z,0
2017-04-19T03:38:17.079Z,0
2017-04-19T03:38:57.759Z,0
2017-04-19T03:39:38.075Z,0
2017-04-19T03:40:18.670Z,0
2017-04-19T03:40:59.394Z,0
2017-04-19T03:41:39.998Z,0
2017-04-19T03:42:20.459Z,0
2017-04-19T03:43:01.121Z,0
2017-04-19T03:43:41.615Z,0
2017-04-19T03:44:22.493Z,0
2017-04-19T03:45:02.975Z,0
2017-04-19T03:45:43.440Z,0
2017-04-19T03:46:23.924Z,0
2017-04-19T03:47:04.405Z,0
2017-04-19T03:47:44.880Z,0
2017-04-19T03:48:25.407Z,0
2017-04-19T03:49:05.862Z,0
2017-04-19T03:49:46.328Z,0
2017-04-19T03:50:26.850Z,0
2017-04-19T03:51:07.378Z,0
2017-04-19T03:51:47.831Z,0
2017-04-19T03:52:28.378Z,0
2017-04-19T03:53:08.867Z,0
2017-04-19T03:53:49.268Z,0
2017-04-19T03:54:29.772Z,0
2017-04-19T03:55:10.222Z,0
2017-04-19T03:55:50.735Z,0
2017-04-19T03:56:31.226Z,0
2017-04-19T03:57:11.683Z,0
2017-04-19T03:57:52.147Z,0
2017-04-19T03:58:32.626Z,0
2017-04-19T03:59:13.120Z,0
2017-04-19T03:59:53.625Z,0
2017-04-19T04:00:34.071Z,0
2017-04-19T04:01:14.570Z,0
2017-04-19T04:01:55.097Z,0
2017-04-19T04:02:35.573Z,0
2017-04-19T04:03:16.023Z,0
2017-04-19T04:03:56.522Z,0
2017-04-19T04:04:36.965Z,0
2017-04-19T04:05:17.511Z,0
2017-04-19T04:05:57.977Z,0
2017-04-19T04:06:38.446Z,0
2017-04-19T04:07:19.486Z,0
2017-04-19T04:07:59.962Z,0
2017-04-19T04:08:40.405Z,0
2017-04-19T04:09:20.852Z,0
2017-04-19T04:10:01.302Z,0
2017-04-19T04:10:41.828Z,0
2017-04-19T04:11:22.295Z,0
2017-04-19T04:12:03.002Z,0
2017-04-19T04:12:43.322Z,0
2017-04-19T04:13:23.919Z,0
2017-04-19T04:14:04.413Z,0
2017-04-19T04:14:45.598Z,0
2017-04-19T04:15:26.077Z,0
2017-04-19T04:16:06.611Z,0
2017-04-19T04:16:47.200Z,0
2017-04-19T04:17:27.679Z,0
2017-04-19T04:18:08.162Z,0
2017-04-19T04:18:48.862Z,0
2017-04-19T04:19:29.393Z,0
2017-04-19T04:20:09.804Z,0
2017-04-19T04:20:50.312Z,0
2017-04-19T04:21:30.811Z,0
2017-04-19T04:22:11.476Z,0
2017-04-19T04:22:52.239Z,0
2017-04-19T04:23:32.810Z,0
2017-04-19T04:24:13.289Z,0
2017-04-19T04:24:53.775Z,0
2017-04-19T04:25:34.266Z,0
2017-04-19T04:26:15.310Z,0
2017-04-19T04:26:55.823Z,0
2017-04-19T04:27:36.353Z,0
2017-04-19T04:28:16.865Z,0
2017-04-19T04:28:57.341Z,0
2017-04-19T04:29:37.817Z,0
2017-04-19T04:30:18.280Z,0
2017-04-19T04:30:58.827Z,0
2017-04-19T04:31:39.364Z,0
2017-04-19T04:32:19.822Z,0
2017-04-19T04:33:00.364Z,0
2017-04-19T04:33:40.814Z,0
2017-04-19T04:34:21.325Z,0
2017-04-19T04:35:02.633Z,0
2017-04-19T04:35:42.497Z,0
2017-04-19T04:36:23.020Z,0
2017-04-19T04:37:03.535Z,0
2017-04-19T04:37:43.941Z,0
2017-04-19T04:38:24.500Z,0
2017-04-19T04:39:04.966Z,0
2017-04-19T04:39:45.457Z,0
2017-04-19T04:40:25.942Z,0
2017-04-19T04:41:06.426Z,0
2017-04-19T04:41:46.902Z,0
2017-04-19T04:42:27.407Z,0
2017-04-19T04:43:07.915Z,0
2017-04-19T04:43:48.352Z,0
2017-04-19T04:44:28.859Z,0
2017-04-19T04:45:09.361Z,0
2017-04-19T04:45:49.880Z,0
2017-04-19T04:46:30.327Z,0
2017-04-19T04:47:10.801Z,0
2017-04-19T04:47:51.263Z,0
2017-04-19T04:48:31.758Z,0
2017-04-19T04:49:12.255Z,0
2017-04-19T04:49:52.755Z,0
2017-04-19T04:50:33.250Z,0
2017-04-19T04:51:13.748Z,0
2017-04-19T04:51:54.209Z,0
2017-04-19T04:52:34.669Z,0
2017-04-19T04:53:15.458Z,0
2017-04-19T04:53:55.900Z,0
2017-04-19T04:54:36.356Z,0
2017-04-19T04:55:16.856Z,0
2017-04-19T04:55:57.332Z,0
2017-04-19T04:56:37.809Z,0
2017-04-19T04:57:18.254Z,0
2017-04-19T04:57:58.753Z,0
2017-04-19T04:58:39.223Z,0
2017-04-19T04:59:19.757Z,0
2017-04-19T05:00:00.224Z,0
2017-04-19T05:00:40.770Z,5
2017-04-19T05:01:21.268Z,5
2017-04-19T05:02:01.703Z,5
2017-04-19T05:02:42.222Z,5
2017-04-19T05:03:22.767Z,5
2017-04-19T05:04:03.192Z,0
2017-04-19T05:04:43.656Z,5
2017-04-19T05:05:24.155Z,0
2017-04-19T05:06:04.671Z,0
2017-04-19T05:06:45.170Z,0
2017-04-19T05:07:25.691Z,0
2017-04-19T05:08:06.275Z,0
2017-04-19T05:08:46.814Z,0
2017-04-19T05:09:27.310Z,0
2017-04-19T05:10:07.812Z,0
2017-04-19T05:10:48.336Z,0
2017-04-19T05:11:28.756Z,0
2017-04-19T05:12:09.317Z,0
2017-04-19T05:12:49.792Z,0
2017-04-19T05:13:30.289Z,0
2017-04-19T05:14:10.768Z,0
2017-04-19T05:14:51.255Z,5
2017-04-19T05:15:31.825Z,5
2017-04-19T05:16:12.306Z,5
2017-04-19T05:16:52.719Z,5
2017-04-19T05:17:33.189Z,5
2017-04-19T05:18:13.654Z,5
2017-04-19T05:18:54.142Z,10
2017-04-19T05:19:34.611Z,10
2017-04-19T05:20:15.126Z,10
2017-04-19T05:20:55.568Z,15
2017-04-19T05:21:36.040Z,15
2017-04-19T05:22:16.540Z,15
2017-04-19T05:22:56.997Z,15
2017-04-19T05:23:37.503Z,20
2017-04-19T05:24:17.980Z,25
2017-04-19T05:24:58.476Z,30
2017-04-19T05:25:38.951Z,30
2017-04-19T05:26:19.450Z,30
2017-04-19T05:26:59.980Z,30
2017-04-19T05:27:40.509Z,30
2017-04-19T05:28:20.953Z,30
2017-04-19T05:29:01.534Z,25
2017-04-19T05:29:42.030Z,25
2017-04-19T05:30:22.688Z,25
2017-04-19T05:31:03.043Z,25
2017-04-19T05:31:43.575Z,30
2017-04-19T05:32:24.044Z,30
2017-04-19T05:33:04.546Z,30
2017-04-19T05:33:45.088Z,30
2017-04-19T05:34:25.550Z,30
2017-04-19T05:35:06.044Z,30
2017-04-19T05:35:46.636Z,35
2017-04-19T05:36:27.182Z,40
2017-04-19T05:37:07.655Z,40
2017-04-19T05:37:48.128Z,40
2017-04-19T05:38:28.645Z,35
2017-04-19T05:39:09.125Z,35
2017-04-19T05:39:49.734Z,35
2017-04-19T05:40:30.531Z,35
2017-04-19T05:41:11.144Z,35
2017-04-19T05:41:51.608Z,35
2017-04-19T05:42:32.053Z,35
2017-04-19T05:43:12.640Z,35
2017-04-19T05:43:53.150Z,35
2017-04-19T05:44:33.656Z,35
2017-04-19T05:45:14.153Z,40
2017-04-19T05:45:54.659Z,40
2017-04-19T05:46:36.809Z,40
2017-04-19T05:47:17.358Z,45
2017-04-19T05:47:57.817Z,45
2017-04-19T05:48:38.305Z,45
2017-04-19T05:49:18.792Z,50
2017-04-19T05:49:59.254Z,55
2017-04-19T05:50:39.730Z,55
2017-04-19T05:51:20.248Z,65
2017-04-19T05:52:00.917Z,70
2017-04-19T05:52:41.329Z,80
2017-04-19T05:53:21.927Z,85
2017-04-19T05:54:02.334Z,85
2017-04-19T05:54:42.816Z,95
2017-04-19T05:55:23.371Z,105
2017-04-19T05:56:03.819Z,110
2017-04-19T05:56:44.283Z,115
2017-04-19T05:57:24.758Z,115
2017-04-19T05:58:05.248Z,110
2017-04-19T05:58:45.775Z,105
2017-04-19T05:59:26.231Z,95
2017-04-19T06:00:06.738Z,90
2017-04-19T06:00:47.223Z,85
2017-04-19T06:01:27.752Z,90
2017-04-19T06:02:08.172Z,95
2017-04-19T06:02:48.680Z,100
2017-04-19T06:03:29.285Z,100
2017-04-19T06:04:10.102Z,105
2017-04-19T06:04:50.616Z,105
2017-04-19T06:05:31.524Z,105
2017-04-19T06:06:12.563Z,100
2017-04-19T06:06:53.059Z,95
2017-04-19T06:07:33.532Z,90
2017-04-19T06:08:14.588Z,85
2017-04-19T06:08:55.162Z,85
2017-04-19T06:09:35.755Z,80
2017-04-19T06:10:16.220Z,80
2017-04-19T06:10:56.733Z,80
2017-04-19T06:11:37.769Z,80
2017-04-19T06:12:18.240Z,80
2017-04-19T06:12:58.862Z,80
2017-04-19T06:13:39.454Z,85
2017-04-19T06:14:19.953Z,85
2017-04-19T06:15:00.491Z,85
2017-04-19T06:15:41.909Z,85
2017-04-19T06:16:22.546Z,80
2017-04-19T06:17:03.019Z,80
2017-04-19T06:17:43.470Z,80
2017-04-19T06:18:23.989Z,80
2017-04-19T06:19:04.473Z,85
2017-04-19T06:19:44.966Z,90
2017-04-19T06:20:25.483Z,90
2017-04-19T06:21:06.563Z,90
2017-04-19T06:21:47.062Z,90
2017-04-19T06:22:27.682Z,90
2017-04-19T06:23:08.030Z,95
2017-04-19T06:23:48.536Z,90
2017-04-19T06:24:29.029Z,90
2017-04-19T06:25:10.087Z,85
2017-04-19T06:25:50.546Z,85
2017-04-19T06:26:31.023Z,85
2017-04-19T06:27:11.493Z,85
2017-04-19T06:27:52.040Z,85
2017-04-19T06:28:32.491Z,75
2017-04-19T06:29:13.025Z,75
2017-04-19T06:29:53.513Z,70
2017-04-19T06:30:34.045Z,70
2017-04-19T06:31:14.732Z,70
2017-04-19T06:31:55.182Z,70
2017-04-19T06:32:35.747Z,70
2017-04-19T06:33:16.211Z,75
2017-04-19T06:33:56.800Z,75
2017-04-19T06:34:37.275Z,75
2017-04-19T06:35:17.810Z,75
2017-04-19T06:35:58.303Z,80
2017-04-19T06:36:39.841Z,90
2017-04-19T06:37:20.414Z,100
2017-04-19T06:39:39.277Z,145
2017-04-19T06:40:19.793Z,150
2017-04-19T06:41:00.265Z,150
2017-04-19T06:41:40.780Z,155
2017-04-19T06:42:21.347Z,165
2017-04-19T06:43:01.769Z,175
2017-04-19T06:43:42.290Z,180
2017-04-19T06:44:22.776Z,175
2017-04-19T06:45:03.261Z,160
2017-04-19T06:45:43.766Z,145
2017-04-19T06:46:24.271Z,145
2017-04-19T06:47:04.732Z,145
2017-04-19T06:47:45.504Z,145
2017-04-19T06:48:26.011Z,145
2017-04-19T06:49:06.995Z,155
2017-04-19T06:49:48.221Z,160
2017-04-19T06:50:28.877Z,165
2017-04-19T06:51:09.446Z,170
2017-04-19T06:51:49.907Z,165
2017-04-19T06:52:30.408Z,165
2017-04-19T06:53:10.980Z,170
2017-04-19T06:53:51.500Z,170
2017-04-19T06:54:31.991Z,165
2017-04-19T06:55:12.537Z,185
2017-04-19T06:55:52.979Z,185
2017-04-19T06:56:33.804Z,215
2017-04-19T06:57:14.676Z,220
2017-04-19T06:57:55.180Z,230
2017-04-19T06:58:35.646Z,225
2017-04-19T06:59:16.175Z,250
2017-04-19T06:59:56.850Z,275
2017-04-19T07:00:38.139Z,285
2017-04-19T07:01:19.005Z,305
2017-04-19T07:01:59.492Z,280
2017-04-19T07:02:39.973Z,230
2017-04-19T07:03:20.622Z,265
2017-04-19T07:04:01.067Z,230
2017-04-19T07:04:41.614Z,235
2017-04-19T07:05:22.273Z,220
2017-04-19T07:06:02.979Z,170
2017-04-19T07:06:43.645Z,145
2017-04-19T07:07:24.699Z,130
2017-04-19T07:08:05.156Z,90
2017-04-19T07:08:45.672Z,85
2017-04-19T07:09:27.205Z,75
2017-04-19T07:10:07.768Z,65
2017-04-19T07:10:48.287Z,60
2017-04-19T07:11:29.166Z,65
2017-04-19T07:12:09.662Z,65
2017-04-19T07:12:50.417Z,70
2017-04-19T07:13:30.965Z,75
2017-04-19T07:14:11.402Z,85
2017-04-19T07:14:52.473Z,95
2017-04-19T07:15:33.328Z,95
2017-04-19T07:16:14.064Z,100
2017-04-19T07:16:54.546Z,100
2017-04-19T07:17:35.141Z,105
2017-04-19T07:18:15.578Z,110
2017-04-19T07:18:56.123Z,115
2017-04-19T07:19:36.678Z,115
2017-04-19T07:20:17.272Z,115
2017-04-19T07:20:57.790Z,115
2017-04-19T07:21:38.331Z,120
2017-04-19T07:22:18.897Z,120
2017-04-19T07:22:59.527Z,120
2017-04-19T07:23:40.036Z,120
2017-04-19T07:24:20.565Z,120
2017-04-19T07:25:01.081Z,120
2017-04-19T07:25:41.593Z,120
2017-04-19T07:26:22.133Z,120
2017-04-19T07:27:02.741Z,120
2017-04-19T07:27:43.205Z,120
2017-04-19T07:28:23.835Z,115
2017-04-19T07:29:04.507Z,110
2017-04-19T07:29:45.151Z,115
2017-04-19T07:30:25.827Z,110
2017-04-19T07:31:06.409Z,110
2017-04-19T07:31:46.923Z,105
2017-04-19T07:32:27.454Z,110
2017-04-19T07:33:08.101Z,105
2017-04-19T07:33:48.419Z,105
2017-04-19T07:34:28.878Z,100
2017-04-19T07:35:09.372Z,100
2017-04-19T07:35:50.180Z,105
2017-04-19T07:36:31.241Z,110
2017-04-19T07:37:11.430Z,110
2017-04-19T07:37:51.979Z,120
2017-04-19T07:38:32.551Z,120
2017-04-19T07:39:13.086Z,125
2017-04-19T07:39:53.824Z,130
2017-04-19T07:40:34.505Z,135
2017-04-19T07:41:15.299Z,135
2017-04-19T07:41:55.911Z,135
2017-04-19T07:42:36.536Z,135
2017-04-19T07:43:17.197Z,140
2017-04-19T07:43:58.291Z,150
2017-04-19T07:44:38.733Z,145
2017-04-19T07:45:19.374Z,150
2017-04-19T07:45:59.786Z,150
2017-04-19T07:46:40.278Z,155
2017-04-19T07:47:20.877Z,165
2017-04-19T07:48:01.359Z,175
2017-04-19T07:48:41.822Z,180
2017-04-19T07:49:22.593Z,180
2017-04-19T07:50:03.464Z,180
2017-04-19T07:50:44.256Z,180
2017-04-19T07:51:25.671Z,175
2017-04-19T07:52:06.249Z,175
2017-04-19T07:52:46.781Z,175
2017-04-19T07:53:28.693Z,175
2017-04-19T07:54:09.281Z,180
2017-04-19T07:54:49.726Z,185
2017-04-19T07:55:30.215Z,185
2017-04-19T07:56:10.695Z,190
2017-04-19T07:56:51.591Z,195
2017-04-19T07:57:31.881Z,200
2017-04-19T07:58:12.473Z,200
2017-04-19T07:58:52.931Z,200
2017-04-19T07:59:33.415Z,210
2017-04-19T08:00:14.026Z,220
2017-04-19T08:00:54.806Z,235
2017-04-19T08:01:35.855Z,240
2017-04-19T08:02:17.143Z,245
2017-04-19T08:02:57.560Z,255
2017-04-19T08:03:38.126Z,270
2017-04-19T08:04:18.943Z,275
2017-04-19T08:04:59.461Z,280
2017-04-19T08:05:39.890Z,275
2017-04-19T08:06:21.099Z,265
2017-04-19T08:07:01.085Z,255
2017-04-19T08:07:41.572Z,250
2017-04-19T08:08:22.147Z,245
2017-04-19T08:09:02.651Z,240
2017-04-19T08:09:43.555Z,220
2017-04-19T08:10:23.713Z,195
2017-04-19T08:11:04.669Z,175
2017-04-19T08:11:45.118Z,155
2017-04-19T08:12:25.606Z,150
2017-04-19T08:13:06.256Z,135
2017-04-19T08:13:46.766Z,120
2017-04-19T08:14:27.370Z,120
2017-04-19T08:15:08.368Z,130
2017-04-19T08:15:51.685Z,135
2017-04-19T08:16:32.377Z,145
2017-04-19T08:17:12.915Z,170
2017-04-19T08:17:54.105Z,175
2017-04-19T08:18:35.707Z,170
2017-04-19T08:19:16.197Z,155
2017-04-19T08:19:58.507Z,165
2017-04-19T08:20:39.894Z,175
2017-04-19T08:23:11.578Z,170
2017-04-19T08:23:52.124Z,165
2017-04-19T08:24:33.844Z,175
2017-04-19T08:25:14.443Z,190
2017-04-19T08:25:55.322Z,200
2017-04-19T08:26:36.012Z,205
2017-04-19T08:27:16.439Z,200
2017-04-19T08:27:56.985Z,185
2017-04-19T08:28:37.538Z,175
2017-04-19T08:29:18.283Z,170
2017-04-19T08:30:00.082Z,165
2017-04-19T08:30:41.442Z,165
2017-04-19T08:31:22.039Z,155
2017-04-19T08:32:02.595Z,155
2017-04-19T08:32:43.070Z,145
2017-04-19T08:33:24.513Z,125
2017-04-19T08:34:05.638Z,110
2017-04-19T08:34:45.996Z,95
2017-04-19T08:35:26.564Z,85
2017-04-19T08:36:07.012Z,75
2017-04-19T08:36:47.485Z,65
2017-04-19T08:37:28.657Z,65
2017-04-19T08:38:09.280Z,55
2017-04-19T08:38:51.437Z,55
2017-04-19T08:39:31.977Z,65
2017-04-19T08:40:12.232Z,70
2017-04-19T08:40:52.739Z,85
2017-04-19T08:41:33.944Z,100
2017-04-19T08:42:13.706Z,105
2017-04-19T08:42:54.169Z,85
2017-04-19T08:43:34.751Z,75
2017-04-19T08:44:15.733Z,60
2017-04-19T08:44:56.240Z,55
2017-04-19T08:45:36.845Z,55
2017-04-19T08:46:17.353Z,55
2017-04-19T08:46:58.059Z,60
2017-04-19T08:47:38.825Z,65
2017-04-19T08:48:19.443Z,75
2017-04-19T08:48:59.929Z,80
2017-04-19T08:49:40.910Z,90
2017-04-19T08:50:21.555Z,100
2017-04-19T08:51:03.953Z,105
2017-04-19T08:51:43.726Z,115
2017-04-19T08:52:24.771Z,135
2017-04-19T08:53:06.943Z,145
2017-04-19T08:53:48.414Z,140
2017-04-19T08:54:28.990Z,130
2017-04-19T08:55:10.439Z,120
2017-04-19T08:55:51.077Z,110
2017-04-19T08:56:31.553Z,105
2017-04-19T08:57:12.370Z,90
2017-04-19T08:57:53.182Z,80
2017-04-19T08:58:36.074Z,70
2017-04-19T08:59:16.577Z,65
2017-04-19T08:59:57.064Z,65
2017-04-19T09:00:37.932Z,60
2017-04-19T09:01:18.441Z,65
2017-04-19T09:01:59.908Z,70
2017-04-19T09:02:40.524Z,80
2017-04-19T09:03:21.059Z,85
2017-04-19T09:04:02.072Z,90
2017-04-19T09:04:42.549Z,95
2017-04-19T09:05:23.016Z,95
2017-04-19T09:06:03.627Z,95
2017-04-19T09:06:48.412Z,95
2017-04-19T09:07:28.453Z,90
2017-04-19T09:08:08.996Z,85
2017-04-19T09:08:50.841Z,80
2017-04-19T09:11:40.950Z,65
2017-04-19T09:12:28.975Z,70
2017-04-19T09:13:18.290Z,75
2017-04-19T09:14:08.349Z,75
2017-04-19T09:15:01.505Z,80
2017-04-19T09:15:50.180Z,80
2017-04-19T09:16:30.341Z,85
2017-04-19T09:17:10.859Z,85
2017-04-19T09:17:51.342Z,85
2017-04-19T09:18:33.933Z,90
2017-04-19T09:19:14.619Z,90
2017-04-19T09:19:57.375Z,90
2017-04-19T09:20:39.093Z,95
2017-04-19T09:21:21.115Z,95
2017-04-19T09:22:03.000Z,90
2017-04-19T09:22:44.681Z,90
2017-04-19T09:23:25.302Z,85
2017-04-19T09:24:06.679Z,75
2017-04-19T09:24:48.467Z,65
2017-04-19T09:25:32.181Z,55
2017-04-19T09:26:13.324Z,50
2017-04-19T09:29:02.388Z,35
2017-04-19T09:29:43.106Z,30
2017-04-19T09:30:26.780Z,25
2017-04-19T09:31:07.191Z,25
2017-04-19T09:31:48.548Z,25
2017-04-19T09:32:29.555Z,30
2017-04-19T09:33:12.900Z,25
2017-04-19T09:33:56.430Z,25
2017-04-19T09:34:37.836Z,20
2017-04-19T09:35:19.060Z,25
2017-04-19T09:36:00.908Z,25
2017-04-19T09:36:47.520Z,25
2017-04-19T09:41:19.913Z,30
2017-04-19T09:42:01.660Z,35
2017-04-19T09:42:42.181Z,45
2017-04-19T09:43:22.783Z,55
2017-04-19T09:44:03.959Z,60
2017-04-19T09:47:57.202Z,80
2017-04-19T09:48:44.113Z,90
2017-04-19T09:49:33.682Z,100
2017-04-19T09:52:04.029Z,110
2017-04-19T09:52:51.900Z,105
2017-04-19T09:53:39.062Z,100
2017-04-19T09:54:28.680Z,100
2017-04-19T09:55:12.037Z,100
2017-04-19T09:55:53.028Z,110
2017-04-19T09:56:33.633Z,120
2017-04-19T09:57:14.688Z,125
2017-04-19T09:57:55.626Z,135
2017-04-19T09:58:40.354Z,135
2017-04-19T09:59:25.028Z,145
2017-04-19T10:13:08.126Z,170
2017-04-19T10:17:04.550Z,205
2017-04-19T10:17:53.305Z,220
2017-04-19T10:18:44.740Z,220
2017-04-19T10:19:28.042Z,215
2017-04-19T10:20:08.669Z,210
2017-04-19T10:20:49.360Z,215
2017-04-19T10:21:29.789Z,225
2017-04-19T10:22:10.656Z,225
2017-04-19T10:22:51.385Z,225